Latest Coastal Weather Observations for Ulladulla

IDN60701

Issued at 3:45 pm EDT Thursday 23 October 2014 (issued every 10 minutes, with the page automatically refreshed every 10 minutes)

About coastal observations | Map of coastal stations | Coastal observations for NSW | Marine services | Other Formats
Station Details ID: 069138 Name: ULLADULLA AWS Lat: -35.36 Lon: 150.48 Height: 35.7 m
Data from the previous 72 hours. | See also: Recent months at Ulladulla
Date/Time
EDT
Temp

°C
Wind Pressure Rain
since 9am
mm
Weather Cloud Vis
km
Sea
Height
m
Swell
Dir
 
Speed
knots
Gust
knots
hPa Trend Height
m
Period
s
Dir
23/03:30pm 22.0 SSE 3 6 1017.1 - 0.0 - - - - - - -
23/03:00pm 21.2 SSE 3 5 1017.3 - 0.0 - - - - - - -
23/02:30pm 21.5 SE 5 8 1017.0 - 0.0 - - - - - - -
23/02:00pm 20.8 S 4 6 1017.5 - 0.0 - - - - - - -
23/01:30pm 20.8 S 4 6 1017.6 - 0.0 - - - - - - -
23/01:00pm 20.6 S 4 5 1017.6 - 0.0 - - - - - - -
23/12:30pm 19.9 SSE 3 5 1017.8 - 0.0 - - - - - - -
23/12:00pm 20.0 S 4 6 1017.8 - 0.0 - - - - - - -
23/11:30am 20.3 SSE 3 5 1018.0 - 0.0 - - - - - - -
23/11:00am 20.7 SSE 4 6 1018.1 - 0.0 - - - - - - -
23/10:30am 19.8 SSE 3 4 1018.1 - 0.0 - - - - - - -
23/10:00am 19.2 S 3 5 1018.2 - 0.0 - - - - - - -
23/09:30am 18.6 S 3 4 1017.9 - 0.0 - - - - - - -
23/09:00am 18.5 S 3 5 1017.9 - 0.0 - - - - - - -
23/08:30am 18.2 S 3 5 1017.8 - 0.0 - - - - - - -
23/08:00am 17.0 S 4 6 1017.9 - 0.0 - - - - - - -
23/07:30am 15.8 SSW 3 5 1017.6 - 0.0 - - - - - - -
23/07:00am 15.3 S 1 4 1017.4 - 0.0 - - - - - - -
23/06:30am 14.7 CALM 0 0 1017.0 - 0.0 - - - - - - -
23/06:00am 14.8 CALM 0 0 1016.8 - 0.0 - - - - - - -
23/05:30am 14.5 NNW 1 2 1016.5 - 0.0 - - - - - - -
23/05:00am 14.5 CALM 0 2 1016.2 - 0.0 - - - - - - -
23/04:30am 14.3 NNW 1 2 1016.2 - 0.0 - - - - - - -
23/04:00am 14.4 N 2 3 1016.1 - 0.0 - - - - - - -
23/03:30am 14.4 SW 1 2 1016.6 - 0.0 - - - - - - -
23/03:00am 14.4 CALM 0 0 1016.9 - 0.0 - - - - - - -
23/02:30am 14.3 SW 1 2 1017.2 - 0.0 - - - - - - -
23/02:00am 14.8 SW 2 4 1017.7 - 0.0 - - - - - - -
23/01:30am 14.7 WNW 2 3 1017.7 - 0.0 - - - - - - -
23/01:00am 14.7 CALM 0 0 1018.1 - 0.0 - - - - - - -
23/12:30am 14.8 CALM 0 0 1018.3 - 0.0 - - - - - - -
23/12:00am 14.7 WNW 0 0 1018.5 - 0.0 - - - - - - -
 
Date/Time
EDT
Temp

°C
Wind Pressure Rain
since 9am
mm
Weather Cloud Vis
km
Sea
Height
m
Swell
Dir
 
Speed
knots
Gust
knots
hPa Trend Height
m
Period
s
Dir
22/11:30pm 15.2 CALM 0 1 1018.7 - 0.0 - - - - - - -
22/11:00pm 16.2 N 4 5 1018.8 - 0.0 - - - - - - -
22/10:30pm 16.7 N 3 5 1019.0 - 0.0 - - - - - - -
22/10:00pm 17.0 N 5 7 1019.0 - 0.0 - - - - - - -
22/09:30pm 17.0 N 2 3 1019.1 - 0.0 - - - - - - -
22/09:00pm 17.2 N 2 7 1019.2 - 0.0 - - - - - - -
22/08:30pm 17.4 NE 5 8 1019.0 - 0.0 - - - - - - -
22/08:00pm 17.4 NNE 3 5 1018.8 - 0.0 - - - - - - -
22/07:30pm 17.7 NE 5 9 1018.6 - 0.0 - - - - - - -
22/07:00pm 17.9 NNE 7 12 1018.5 - 0.0 - - - - - - -
22/06:30pm 18.1 NE 9 16 1018.3 - 0.0 - - - - - - -
22/06:00pm 18.3 NE 13 18 1018.3 - 0.0 - - - - - - -
22/05:30pm 18.5 NE 12 20 1018.3 - 0.0 - - - - - - -
22/05:00pm 18.6 NE 13 19 1018.4 - 0.0 - - - - - - -
22/04:30pm 18.9 NE 10 16 1018.5 - 0.0 - - - - - - -
22/04:00pm 18.9 NE 13 21 1018.8 - 0.0 - - - - - - -
22/03:30pm 19.1 NE 12 20 1019.2 - 0.0 - - - - - - -
22/03:00pm 18.9 NE 18 23 1019.6 - 0.0 - - - - - - -
22/02:30pm 19.0 NE 17 24 1020.1 - 0.0 - - - - - - -
22/02:00pm 18.7 NNE 19 23 1020.7 - 0.0 - - - - - - -
22/01:30pm 18.6 NNE 16 22 1021.4 - 0.0 - - - - - - -
22/01:00pm 18.5 NNE 13 17 1022.0 - 0.0 - - - - - - -
22/12:30pm 18.3 NNE 15 19 1022.5 - 0.0 - - - - - - -
22/12:00pm 18.4 NNE 12 15 1023.4 - 0.0 - - - - - - -
22/11:30am 17.9 NNE 11 14 1024.0 - 0.0 - - - - - - -
22/11:00am 17.8 NE 11 14 1024.6 - 0.0 - - - - - - -
22/10:30am 17.5 NE 7 14 1025.2 - 0.0 - - - - - - -
22/10:00am 17.9 NNE 5 11 1025.5 - 0.0 - - - - - - -
22/09:30am 17.1 N 9 15 1025.7 - 0.0 - - - - - - -
22/09:00am 16.4 N 12 16 1025.8 - 0.0 - - - - - - -
22/08:30am 15.9 N 9 13 1026.0 - 0.0 - - - - - - -
22/08:00am 15.5 N 8 11 1026.3 - 0.0 - - - - - - -
22/07:30am 15.0 N 7 14 1026.4 - 0.0 - - - - - - -
22/07:00am 13.9 N 6 11 1026.5 - 0.0 - - - - - - -
22/06:30am 13.9 N 6 11 1026.5 - 0.0 - - - - - - -
22/06:00am 14.3 N 5 8 1026.5 - 0.0 - - - - - - -
22/05:30am 14.8 N 6 10 1026.4 - 0.0 - - - - - - -
22/05:00am 15.0 N 8 13 1026.4 - 0.0 - - - - - - -
22/04:30am 15.2 N 7 13 1026.6 - 0.0 - - - - - - -
22/04:00am 14.7 N 5 8 1026.9 - 0.0 - - - - - - -
22/03:30am 14.2 NNW 3 4 1027.3 - 0.0 - - - - - - -
22/03:00am 14.5 NNW 3 5 1027.6 - 0.0 - - - - - - -
22/02:30am 14.7 N 3 5 1028.0 - 0.0 - - - - - - -
22/02:00am 14.5 N 3 5 1028.5 - 0.0 - - - - - - -
22/01:30am 14.5 NNW 3 4 1028.9 - 0.0 - - - - - - -
22/01:00am 14.4 N 2 4 1029.4 - 0.0 - - - - - - -
22/12:30am 14.5 NNW 1 2 1029.8 - 0.0 - - - - - - -
22/12:00am 14.7 NNW 2 4 1030.4 - 0.0 - - - - - - -
 
Date/Time
EDT
Temp

°C
Wind Pressure Rain
since 9am
mm
Weather Cloud Vis
km
Sea
Height
m
Swell
Dir
 
Speed
knots
Gust
knots
hPa Trend Height
m
Period
s
Dir
21/11:30pm 14.8 NW 2 4 1030.5 - 0.0 - - - - - - -
21/11:00pm 15.2 NNW 3 5 1030.6 - 0.0 - - - - - - -
21/10:30pm 15.7 N 4 8 1030.8 - 0.0 - - - - - - -
21/10:00pm 16.0 N 7 11 1030.8 - 0.0 - - - - - - -
21/09:30pm 16.0 N 5 10 1030.9 - 0.0 - - - - - - -
21/09:00pm 16.0 NNE 5 8 1030.9 - 0.0 - - - - - - -
21/08:30pm 16.1 NE 5 10 1030.9 - 0.0 - - - - - - -
21/08:00pm 16.0 NNE 5 9 1030.5 - 0.0 - - - - - - -
21/07:30pm 16.0 N 3 6 1030.3 - 0.0 - - - - - - -
21/07:00pm 16.0 N 4 8 1030.1 - 0.0 - - - - - - -
21/06:30pm 16.1 N 4 11 1030.0 - 0.0 - - - - - - -
21/06:00pm 16.3 N 4 10 1029.9 - 0.0 - - - - - - -
21/05:30pm 16.4 NNE 4 10 1030.0 - 0.0 - - - - - - -
21/05:00pm 16.4 NNE 5 10 1030.1 - 0.0 - - - - - - -
21/04:30pm 16.4 NE 7 12 1030.1 - 0.0 - - - - - - -
21/04:00pm 16.2 NNE 7 11 1030.3 - 0.0 - - - - - - -
21/03:30pm 16.1 NNE 6 8 1030.6 - 0.0 - - - - - - -
21/03:00pm 16.6 NE 6 10 1031.0 - 0.0 - - - - - - -
21/02:30pm 16.6 NNE 5 7 1031.2 - 0.0 - - - - - - -
21/02:00pm 17.3 ENE 4 5 1031.6 - 0.0 - - - - - - -
21/01:30pm 17.2 N 2 4 1032.1 - 0.0 - - - - - - -
21/01:00pm 16.3 N 2 4 1032.4 - 0.0 - - - - - - -
21/12:30pm 16.2 N 4 7 1032.8 - 0.0 - - - - - - -
21/12:00pm 16.6 S 3 4 1032.9 - 0.0 - - - - - - -
21/11:30am 16.4 S 4 5 1033.3 - 0.0 - - - - - - -
21/11:00am 16.1 S 3 5 1033.4 - 0.0 - - - - - - -
21/10:30am 16.0 S 3 6 1033.4 - 0.0 - - - - - - -
21/10:00am 15.3 S 3 5 1033.4 - 0.0 - - - - - - -
21/09:30am 14.8 SSW 5 8 1033.3 - 0.0 - - - - - - -
21/09:00am 14.2 SSW 4 6 1033.1 - 2.6 - - - - - - -
21/08:30am 13.8 SSW 3 5 1032.9 - 2.6 - - - - - - -
21/08:00am 13.1 WSW 4 5 1032.7 - 2.6 - - - - - - -
21/07:30am 12.7 SSW 4 6 1032.4 - 2.6 - - - - - - -
21/07:00am 12.4 SW 3 5 1032.1 - 2.6 - - - - - - -
21/06:30am 12.2 SSW 3 5 1032.0 - 2.6 - - - - - - -
21/06:00am 12.1 SW 4 6 1031.8 - 2.6 - - - - - - -
21/05:30am 12.1 WSW 4 6 1031.7 - 2.6 - - - - - - -
21/05:00am 12.0 WSW 4 7 1031.7 - 2.6 - - - - - - -
21/04:30am 12.0 WSW 5 7 1031.8 - 2.6 - - - - - - -
21/04:00am 11.9 SSW 5 6 1031.9 - 2.6 - - - - - - -
21/03:30am 11.9 SW 3 5 1031.9 - 2.6 - - - - - - -
21/03:00am 12.1 W 3 4 1032.1 - 2.6 - - - - - - -
21/02:30am 12.0 WSW 3 5 1032.2 - 2.6 - - - - - - -
21/02:00am 12.1 WSW 4 6 1032.3 - 2.6 - - - - - - -
21/01:30am 12.1 SW 3 6 1032.7 - 2.6 - - - - - - -
21/01:00am 12.2 WSW 4 6 1032.7 - 2.6 - - - - - - -
21/12:30am 12.2 SW 3 6 1033.0 - 2.6 - - - - - - -
21/12:00am 12.4 SW 3 5 1033.0 - 2.6 - - - - - - -
 
Date/Time
EDT
Temp

°C
Wind Pressure Rain
since 9am
mm
Weather Cloud Vis
km
Sea
Height
m
Swell
Dir
 
Speed
knots
Gust
knots
hPa Trend Height
m
Period
s
Dir
20/11:30pm 12.5 W 3 5 1033.0 - 2.6 - - - - - - -
20/11:00pm 12.6 S 4 6 1033.1 - 2.6 - - - - - - -
20/10:30pm 12.4 SW 4 6 1033.0 - 2.6 - - - - - - -
20/10:00pm 12.4 SW 4 5 1033.1 - 2.6 - - - - - - -
20/09:30pm 12.4 SW 4 6 1033.0 - 2.6 - - - - - - -
20/09:00pm 12.5 WSW 3 5 1032.9 - 2.6 - - - - - - -
20/08:30pm 12.6 W 3 5 1032.7 - 2.6 - - - - - - -
20/08:00pm 12.7 WNW 2 4 1032.6 - 2.6 - - - - - - -
20/07:30pm 12.7 W 4 6 1032.3 - 2.4 - - - - - - -
20/07:00pm 12.9 W 3 6 1032.0 - 2.2 - - - - - - -
20/06:30pm 13.2 W 2 5 1031.8 - 1.8 - - - - - - -
20/06:00pm 13.1 S 4 8 1031.5 - 1.8 Recent precip. - - - - - -
20/05:30pm 13.5 S 5 9 1031.5 - 1.0 - - - - - - -
20/05:00pm 14.9 ESE 4 8 1031.4 - 1.0 - - - - - - -
20/04:30pm 15.3 SSE 8 13 1031.1 - 1.0 - - - - - - -
20/04:00pm 15.3 S 9 15 1031.1 - 1.0 - - - - - - -

Other Formats:

Comma delimited format used in spreadsheet applications
http://www.bom.gov.au/fwo/IDN60701/IDN60701.94938.axf

JavaScript Object Notation format (JSON) in row-major order
http://www.bom.gov.au/fwo/IDN60701/IDN60701.94938.json